Time;durP1;ratioP1;P1;durP2;ratioP2;P2;SDS_P1;SDS_P2;PMS_P1;PMS_P2;Temp;Humidity;BMP_temperature;BMP_pressure;BME280_temperature;BME280_humidity;BME280_pressure;Samples;Min_cycle;Max_cycle;Signal;HPM_P1;HPM_P2
2022/08/20 00:01:00;;;;;;;4.17;3.87;;;22.30;54.50;;;;;;974344;143;27305;-75
2022/08/20 00:03:28;;;;;;;4.70;3.77;;;22.20;54.50;;;;;;972302;146;27259;-75
2022/08/20 00:05:55;;;;;;;4.58;4.28;;;22.20;54.80;;;;;;971681;143;27346;-75
2022/08/20 00:08:21;;;;;;;4.75;4.35;;;22.10;55.00;;;;;;965947;145;27309;-75
2022/08/20 00:10:48;;;;;;;5.25;4.17;;;22.00;55.20;;;;;;980327;142;27321;-75
2022/08/20 00:13:14;;;;;;;4.30;3.90;;;22.00;55.30;;;;;;973018;145;27778;-75
2022/08/20 00:15:41;;;;;;;4.50;4.10;;;21.90;55.40;;;;;;972241;143;27333;-75
2022/08/20 00:18:08;;;;;;;4.22;3.92;;;21.90;55.60;;;;;;964247;145;27423;-75
2022/08/20 00:20:34;;;;;;;4.85;4.35;;;21.80;55.70;;;;;;955062;145;27340;-75
2022/08/20 00:23:01;;;;;;;4.22;3.60;;;21.80;55.90;;;;;;961186;146;27385;-75
2022/08/20 00:25:27;;;;;;;4.15;3.85;;;21.70;56.00;;;;;;966494;147;27406;-75
2022/08/20 00:27:54;;;;;;;4.50;4.10;;;21.70;56.20;;;;;;974899;143;27374;-75
2022/08/20 00:30:21;;;;;;;4.37;3.98;;;21.60;56.30;;;;;;965877;147;27406;-75
2022/08/20 00:32:47;;;;;;;4.53;4.20;;;21.60;56.40;;;;;;961726;147;27339;-75
2022/08/20 00:35:16;;;;;;;4.65;4.20;;;21.60;56.60;;;;;;957731;145;27921;-75
2022/08/20 00:37:43;;;;;;;5.70;4.45;;;21.50;56.60;;;;;;974954;143;27290;-75
2022/08/20 00:40:10;;;;;;;4.35;3.95;;;21.40;56.70;;;;;;974641;143;27469;-75
2022/08/20 00:42:42;;;;;;;3.80;3.50;;;21.40;56.90;;;;;;955497;145;27473;-75
2022/08/20 00:45:09;;;;;;;5.25;4.78;;;21.40;57.00;;;;;;972535;143;27358;-75
2022/08/20 00:47:36;;;;;;;4.67;4.35;;;21.30;57.10;;;;;;965101;144;27274;-75
2022/08/20 00:50:05;;;;;;;4.42;4.12;;;21.20;57.30;;;;;;964721;144;27274;-75
2022/08/20 00:52:28;;;;;;;5.17;4.78;;;21.20;57.40;;;;;;965744;144;27414;-75
2022/08/20 00:54:55;;;;;;;4.60;4.15;;;21.10;57.60;;;;;;960454;145;27325;-75
2022/08/20 00:57:28;;;;;;;5.25;4.75;;;21.10;57.70;;;;;;963656;144;27354;-75
2022/08/20 00:59:55;;;;;;;4.70;4.37;;;21.00;57.80;;;;;;955826;145;27361;-74
2022/08/20 01:02:21;;;;;;;5.72;5.25;;;21.00;57.90;;;;;;955058;145;27322;-75
2022/08/20 01:04:55;;;;;;;5.87;5.37;;;21.00;58.10;;;;;;972817;143;27426;-75
2022/08/20 01:07:20;;;;;;;5.85;5.28;;;20.90;58.20;;;;;;965192;146;27451;-75
2022/08/20 01:09:46;;;;;;;6.15;5.62;;;20.90;58.40;;;;;;957571;145;27347;-74
2022/08/20 01:12:13;;;;;;;5.72;5.22;;;20.80;58.60;;;;;;963469;147;27416;-75
2022/08/20 01:14:45;;;;;;;5.25;4.65;;;20.80;58.70;;;;;;965168;147;27325;-75
2022/08/20 01:17:16;;;;;;;5.40;4.95;;;20.80;58.90;;;;;;964533;146;27492;-75
2022/08/20 01:19:38;;;;;;;5.45;4.80;;;20.70;58.80;;;;;;962233;146;27321;-75
2022/08/20 01:23:25;;;;;;;5.12;4.72;;;20.60;58.80;;;;;;957707;147;27398;-75
2022/08/20 01:24:32;;;;;;;4.45;4.15;;;20.60;59.00;;;;;;973520;143;27378;-75
2022/08/20 01:26:58;;;;;;;5.53;4.83;;;20.60;59.00;;;;;;956988;145;27318;-75
2022/08/20 01:29:25;;;;;;;4.62;4.30;;;20.60;59.20;;;;;;957375;145;27292;-75
2022/08/20 01:31:51;;;;;;;5.37;4.87;;;20.50;59.30;;;;;;964100;144;27347;-75
2022/08/20 01:34:18;;;;;;;5.97;5.47;;;20.50;59.50;;;;;;956255;145;27410;-74
2022/08/20 01:36:47;;;;;;;5.17;4.78;;;20.40;59.30;;;;;;955945;145;27286;-75
2022/08/20 01:39:14;;;;;;;5.70;5.20;;;20.40;59.70;;;;;;974617;143;27283;-74
2022/08/20 01:41:42;;;;;;;4.95;4.55;;;20.40;59.80;;;;;;965250;144;27424;-75
2022/08/20 01:44:08;;;;;;;5.37;4.97;;;20.40;59.90;;;;;;963098;146;27335;-75
2022/08/20 01:46:37;;;;;;;4.47;4.08;;;20.30;60.00;;;;;;965116;146;27399;-75
2022/08/20 01:49:15;;;;;;;5.50;5.03;;;20.30;60.20;;;;;;963661;146;27402;-74
2022/08/20 01:51:41;;;;;;;4.75;4.35;;;20.30;60.30;;;;;;964898;146;27316;-75
2022/08/20 01:54:08;;;;;;;5.03;4.55;;;20.30;60.30;;;;;;962004;146;27343;-75
2022/08/20 01:56:34;;;;;;;5.17;4.75;;;20.30;60.60;;;;;;957050;145;27438;-75
2022/08/20 01:59:01;;;;;;;5.55;5.08;;;20.20;60.70;;;;;;976932;143;28370;-75
2022/08/20 02:01:28;;;;;;;6.42;5.83;;;20.30;61.00;;;;;;963455;147;27288;-74
2022/08/20 02:03:54;;;;;;;5.55;5.08;;;20.30;61.10;;;;;;964142;146;27388;-75
2022/08/20 02:06:24;;;;;;;5.40;4.97;;;20.30;61.20;;;;;;976912;143;27364;-75
2022/08/20 02:08:47;;;;;;;4.85;4.45;;;20.30;61.30;;;;;;962087;147;27432;-75
2022/08/20 02:11:14;;;;;;;4.72;4.33;;;20.30;61.40;;;;;;964105;147;27383;-74
2022/08/20 02:13:40;;;;;;;4.87;4.47;;;20.40;61.60;;;;;;962495;146;27287;-75
2022/08/20 02:16:07;;;;;;;6.00;4.92;;;20.40;61.60;;;;;;963306;147;27277;-75
2022/08/20 02:18:34;;;;;;;5.05;4.65;;;20.40;61.70;;;;;;970010;146;27306;-75
2022/08/20 02:21:00;;;;;;;5.75;5.25;;;20.40;61.80;;;;;;970879;146;27485;-75
2022/08/20 02:23:27;;;;;;;4.37;4.05;;;20.50;62.00;;;;;;972018;146;27305;-75
2022/08/20 02:25:53;;;;;;;5.33;4.90;;;20.50;62.00;;;;;;971727;143;27310;-75
2022/08/20 02:28:20;;;;;;;5.00;4.60;;;20.60;61.30;;;;;;966034;145;27715;-75
2022/08/20 02:30:47;;;;;;;4.15;3.85;;;20.60;62.20;;;;;;974090;146;27403;-75
2022/08/20 02:33:13;;;;;;;4.55;4.15;;;20.70;62.20;;;;;;981519;142;27309;-75
2022/08/20 02:35:40;;;;;;;5.30;4.90;;;20.70;62.20;;;;;;978354;142;27320;-75
2022/08/20 02:38:07;;;;;;;5.42;4.85;;;20.80;62.30;;;;;;972989;146;27267;-75
2022/08/20 02:40:33;;;;;;;4.83;4.42;;;20.80;62.20;;;;;;973221;143;27413;-75
2022/08/20 02:43:00;;;;;;;4.62;4.33;;;20.90;62.10;;;;;;974036;146;27364;-75
2022/08/20 02:45:26;;;;;;;5.22;4.72;;;20.90;62.00;;;;;;979211;142;27502;-75
2022/08/20 02:47:55;;;;;;;5.50;4.83;;;20.90;62.10;;;;;;973562;143;27338;-75
2022/08/20 02:50:19;;;;;;;5.28;4.83;;;20.90;62.10;;;;;;962562;145;27435;-75
2022/08/20 02:52:46;;;;;;;5.12;4.70;;;20.90;62.10;;;;;;974245;143;27853;-75
2022/08/20 02:55:12;;;;;;;5.12;4.72;;;20.90;62.30;;;;;;962757;145;27278;-74
2022/08/20 02:57:39;;;;;;;5.58;4.78;;;21.00;62.30;;;;;;960357;145;27312;-74
2022/08/20 03:00:09;;;;;;;5.17;4.78;;;20.90;62.30;;;;;;962874;145;27313;-74
2022/08/20 03:02:35;;;;;;;4.83;4.53;;;21.00;62.50;;;;;;960365;145;27444;-73
2022/08/20 03:05:02;;;;;;;4.67;4.20;;;21.00;63.10;;;;;;980944;142;27300;-74
2022/08/20 03:07:28;;;;;;;4.87;4.45;;;21.00;62.60;;;;;;970149;143;27863;-74
2022/08/20 03:09:55;;;;;;;4.75;4.35;;;21.00;62.60;;;;;;973487;143;27304;-73
2022/08/20 03:12:22;;;;;;;6.00;4.67;;;21.10;63.40;;;;;;971410;146;27269;-74
2022/08/20 03:14:48;;;;;;;5.28;4.70;;;21.10;62.70;;;;;;972244;143;27304;-74
2022/08/20 03:17:15;;;;;;;5.17;4.78;;;21.10;62.80;;;;;;973512;143;27423;-74
2022/08/20 03:19:41;;;;;;;4.92;4.53;;;21.20;62.80;;;;;;972051;144;27358;-74
2022/08/20 03:22:08;;;;;;;5.00;4.60;;;21.20;63.70;;;;;;972256;143;27402;-74
2022/08/20 03:24:35;;;;;;;5.15;4.75;;;21.20;62.90;;;;;;971670;143;27410;-74
2022/08/20 03:27:01;;;;;;;4.87;4.47;;;21.30;62.90;;;;;;962775;145;27350;-74
2022/08/20 03:29:28;;;;;;;4.80;4.40;;;21.20;62.80;;;;;;979940;142;27319;-74
2022/08/20 03:31:54;;;;;;;5.62;4.75;;;21.30;62.80;;;;;;982117;145;27422;-74
2022/08/20 03:34:21;;;;;;;4.78;4.37;;;21.30;62.80;;;;;;978456;142;27276;-74
2022/08/20 03:36:47;;;;;;;5.10;4.62;;;21.30;62.90;;;;;;972821;143;27378;-74
2022/08/20 03:39:14;;;;;;;4.60;4.20;;;21.30;62.80;;;;;;962653;145;27378;-74
2022/08/20 03:41:41;;;;;;;4.78;4.37;;;21.30;62.80;;;;;;977936;142;27476;-74
2022/08/20 03:44:08;;;;;;;5.10;4.70;;;21.30;62.80;;;;;;972183;143;27360;-74
2022/08/20 03:46:34;;;;;;;4.85;4.45;;;21.40;63.00;;;;;;972702;143;27423;-74
2022/08/20 03:49:00;;;;;;;4.47;4.08;;;21.40;63.10;;;;;;973248;145;27289;-74
2022/08/20 03:51:27;;;;;;;4.62;4.22;;;21.40;63.10;;;;;;973575;143;27230;-74
2022/08/20 03:53:54;;;;;;;4.42;4.03;;;21.40;63.20;;;;;;973049;146;27357;-74
2022/08/20 03:56:20;;;;;;;5.08;4.67;;;21.40;63.20;;;;;;972686;143;27419;-74
2022/08/20 03:58:47;;;;;;;4.78;4.40;;;21.50;63.20;;;;;;971505;146;27249;-74
2022/08/20 04:01:13;;;;;;;4.22;3.92;;;21.50;63.20;;;;;;961279;145;27303;-74
2022/08/20 04:03:40;;;;;;;4.60;4.20;;;21.50;63.30;;;;;;979799;142;27332;-74
2022/08/20 04:06:07;;;;;;;4.55;4.17;;;21.50;63.30;;;;;;974123;143;27365;-74
2022/08/20 04:08:34;;;;;;;4.70;4.30;;;21.50;63.20;;;;;;973475;146;27354;-74
2022/08/20 04:11:00;;;;;;;5.62;4.37;;;21.60;63.30;;;;;;972927;146;27297;-74
2022/08/20 04:13:26;;;;;;;4.65;4.25;;;21.60;63.40;;;;;;978251;142;27300;-74
2022/08/20 04:15:56;;;;;;;5.75;4.70;;;21.60;63.40;;;;;;980433;142;27386;-74
2022/08/20 04:18:22;;;;;;;4.50;4.20;;;21.60;63.50;;;;;;973742;143;27404;-74
2022/08/20 04:20:46;;;;;;;5.17;4.78;;;21.60;63.50;;;;;;972614;143;27344;-74
2022/08/20 04:23:13;;;;;;;4.72;4.33;;;21.60;63.70;;;;;;975257;143;27239;-74
2022/08/20 04:25:42;;;;;;;5.22;4.83;;;21.60;63.60;;;;;;978650;142;27423;-74
2022/08/20 04:28:08;;;;;;;5.05;4.65;;;21.60;63.60;;;;;;979460;142;27278;-74
2022/08/20 04:30:35;;;;;;;6.12;5.10;;;21.70;63.70;;;;;;979179;142;27767;-74
2022/08/20 04:33:02;;;;;;;5.85;4.83;;;21.70;63.80;;;;;;979969;142;27355;-74
2022/08/20 04:35:28;;;;;;;4.90;4.50;;;21.70;63.70;;;;;;972542;143;27369;-74
2022/08/20 04:37:57;;;;;;;5.12;4.72;;;21.70;63.80;;;;;;961539;145;27363;-74
2022/08/20 04:43:08;;;;;;;4.80;4.35;;;21.70;64.00;;;;;;970603;143;27864;-74
2022/08/20 04:45:35;;;;;;;4.90;4.50;;;21.70;64.00;;;;;;972595;143;27435;-74
2022/08/20 04:48:05;;;;;;;5.17;4.78;;;21.70;64.00;;;;;;972906;143;27322;-74
2022/08/20 04:50:28;;;;;;;5.70;5.20;;;21.80;64.20;;;;;;979131;142;27313;-74
2022/08/20 04:52:58;;;;;;;4.90;4.33;;;21.70;64.20;;;;;;977366;145;27292;-74
2022/08/20 04:55:21;;;;;;;4.65;4.30;;;21.80;64.30;;;;;;977310;145;27329;-74
2022/08/20 04:57:48;;;;;;;5.25;4.75;;;21.80;64.30;;;;;;979736;142;27332;-74
2022/08/20 05:00:15;;;;;;;5.55;5.05;;;21.80;64.30;;;;;;977398;145;27361;-74
2022/08/20 05:02:41;;;;;;;4.75;4.40;;;21.80;64.30;;;;;;978097;142;27374;-74
2022/08/20 05:05:08;;;;;;;5.67;5.17;;;21.90;64.40;;;;;;978095;142;27410;-74
2022/08/20 05:07:40;;;;;;;4.78;4.40;;;21.90;64.50;;;;;;977907;142;27337;-75
2022/08/20 05:10:07;;;;;;;4.70;4.30;;;21.90;64.50;;;;;;979546;143;27320;-74
2022/08/20 05:12:33;;;;;;;4.90;4.42;;;21.90;64.50;;;;;;977949;142;27293;-74
2022/08/20 05:15:00;;;;;;;4.90;4.50;;;21.90;64.70;;;;;;977807;142;27454;-74
2022/08/20 05:17:28;;;;;;;5.00;4.58;;;22.00;64.80;;;;;;980494;145;27276;-74
2022/08/20 05:19:53;;;;;;;5.12;4.25;;;22.00;65.60;;;;;;980516;142;27350;-74
2022/08/20 05:22:20;;;;;;;4.15;3.85;;;22.00;64.90;;;;;;980402;142;27877;-74
2022/08/20 05:24:46;;;;;;;4.10;3.80;;;22.10;65.00;;;;;;981335;144;27417;-74
2022/08/20 05:27:13;;;;;;;4.40;4.10;;;22.10;65.00;;;;;;979482;142;27382;-74
2022/08/20 05:29:40;;;;;;;4.70;4.15;;;22.20;65.00;;;;;;979030;143;27408;-74
2022/08/20 05:32:06;;;;;;;4.12;3.83;;;22.20;65.00;;;;;;977430;145;27278;-74
2022/08/20 05:34:33;;;;;;;4.65;4.25;;;22.30;65.00;;;;;;980743;142;27395;-74
2022/08/20 05:37:01;;;;;;;4.75;4.35;;;22.30;65.00;;;;;;980814;145;27325;-74
2022/08/20 05:39:26;;;;;;;4.45;4.05;;;22.40;65.00;;;;;;978086;142;27441;-74
2022/08/20 05:41:53;;;;;;;4.37;3.95;;;22.40;65.00;;;;;;980208;142;27357;-74
2022/08/20 05:44:19;;;;;;;3.95;3.65;;;22.40;65.00;;;;;;979683;145;27329;-74
2022/08/20 05:46:46;;;;;;;4.58;4.15;;;22.40;65.20;;;;;;980355;143;27289;-74
2022/08/20 05:49:15;;;;;;;4.55;4.10;;;22.50;65.20;;;;;;980547;142;27415;-74
2022/08/20 05:51:42;;;;;;;4.20;3.80;;;22.50;65.20;;;;;;976998;142;27760;-74
2022/08/20 05:54:08;;;;;;;4.33;4.03;;;22.50;65.20;;;;;;980497;142;27395;-74
2022/08/20 05:56:35;;;;;;;4.17;3.87;;;22.50;65.20;;;;;;977974;142;27861;-74
2022/08/20 05:59:02;;;;;;;4.12;3.83;;;22.50;65.10;;;;;;982390;142;27276;-74
2022/08/20 06:01:28;;;;;;;4.65;4.25;;;22.50;65.30;;;;;;980922;142;28091;-74
2022/08/20 06:06:39;;;;;;;4.50;4.10;;;22.50;65.20;;;;;;978227;142;27702;-74
2022/08/20 06:09:06;;;;;;;8.63;4.55;;;22.50;65.20;;;;;;980757;143;27504;-74
2022/08/20 06:11:32;;;;;;;4.35;4.00;;;22.50;65.40;;;;;;980553;145;27314;-74
2022/08/20 06:13:59;;;;;;;4.42;4.05;;;22.60;65.70;;;;;;979346;143;27345;-74
2022/08/20 06:16:25;;;;;;;4.65;4.12;;;22.60;65.70;;;;;;979058;143;27332;-74
2022/08/20 06:18:52;;;;;;;4.47;4.17;;;22.70;65.90;;;;;;980730;145;27324;-74
2022/08/20 06:21:19;;;;;;;4.12;3.83;;;22.70;65.80;;;;;;981565;145;27417;-74
2022/08/20 06:23:45;;;;;;;4.30;3.90;;;22.80;66.10;;;;;;980757;142;27382;-72
2022/08/20 06:26:12;;;;;;;5.37;4.83;;;22.90;65.80;;;;;;980295;143;27401;-74
2022/08/20 06:28:38;;;;;;;4.70;4.30;;;22.90;65.70;;;;;;981701;142;27418;-72
2022/08/20 06:31:06;;;;;;;4.37;4.08;;;23.00;65.80;;;;;;980245;142;27446;-74
2022/08/20 06:33:32;;;;;;;5.12;4.70;;;23.00;65.70;;;;;;981215;142;27308;-74
2022/08/20 06:35:58;;;;;;;4.70;4.30;;;23.10;65.60;;;;;;980670;142;27234;-74
2022/08/20 06:38:25;;;;;;;4.92;4.53;;;23.10;65.70;;;;;;979699;142;27353;-74
2022/08/20 06:40:51;;;;;;;4.60;4.30;;;23.20;65.80;;;;;;980688;142;27432;-74
2022/08/20 06:43:18;;;;;;;4.20;3.90;;;23.30;65.80;;;;;;978539;145;27395;-74
2022/08/20 06:45:45;;;;;;;4.83;4.42;;;23.30;65.90;;;;;;979383;145;27214;-74
2022/08/20 06:48:11;;;;;;;4.67;4.25;;;23.50;66.00;;;;;;979389;143;27426;-74
2022/08/20 06:50:38;;;;;;;5.05;3.95;;;23.60;66.00;;;;;;978868;145;27750;-74
2022/08/20 06:53:10;;;;;;;4.15;3.85;;;23.80;65.90;;;;;;978792;145;27329;-74
2022/08/20 06:55:37;;;;;;;4.55;4.25;;;23.90;65.90;;;;;;978424;143;27310;-74
2022/08/20 06:58:03;;;;;;;4.35;4.05;;;24.00;65.40;;;;;;978180;142;28009;-74
2022/08/20 07:00:31;;;;;;;4.30;3.92;;;24.10;65.60;;;;;;977550;142;27430;-74
2022/08/20 07:02:58;;;;;;;4.40;4.10;;;24.20;65.00;;;;;;979032;142;27350;-75
2022/08/20 07:05:23;;;;;;;4.65;4.25;;;24.30;64.80;;;;;;980229;142;27426;-74
2022/08/20 07:07:49;;;;;;;4.53;4.22;;;24.30;64.50;;;;;;979593;142;27321;-75
2022/08/20 07:10:16;;;;;;;6.00;4.10;;;24.40;64.40;;;;;;977843;145;27281;-74
2022/08/20 07:12:43;;;;;;;4.17;3.87;;;24.40;64.30;;;;;;981406;145;27378;-75
2022/08/20 07:15:09;;;;;;;4.15;3.75;;;24.40;64.30;;;;;;979717;142;27310;-74
2022/08/20 07:17:36;;;;;;;4.78;4.20;;;24.40;64.20;;;;;;979499;142;27295;-75
2022/08/20 07:20:05;;;;;;;3.98;3.67;;;24.40;64.20;;;;;;979379;145;27346;-74
2022/08/20 07:22:35;;;;;;;4.05;3.75;;;24.40;64.20;;;;;;978179;142;27295;-74
2022/08/20 07:24:58;;;;;;;4.03;3.77;;;24.50;64.30;;;;;;978416;142;27418;-74
2022/08/20 07:27:25;;;;;;;7.72;4.25;;;24.50;64.40;;;;;;979375;145;27326;-75
2022/08/20 07:32:36;;;;;;;3.85;3.58;;;24.50;64.50;;;;;;951649;150;27464;-74
2022/08/20 07:35:03;;;;;;;4.08;3.77;;;24.60;64.50;;;;;;918325;153;27444;-74
2022/08/20 07:37:30;;;;;;;4.00;3.70;;;24.60;64.50;;;;;;950083;142;27336;-74
2022/08/20 07:39:56;;;;;;;4.33;4.03;;;24.70;64.60;;;;;;979436;142;27850;-75
2022/08/20 07:42:23;;;;;;;4.53;4.12;;;24.70;64.80;;;;;;975104;143;27322;-74
2022/08/20 07:44:49;;;;;;;4.55;4.10;;;24.90;65.10;;;;;;959966;145;27369;-75
2022/08/20 07:47:19;;;;;;;3.80;3.50;;;25.10;65.70;;;;;;980972;142;27289;-74
2022/08/20 07:49:45;;;;;;;3.75;3.15;;;25.40;66.20;;;;;;981413;142;27281;-75
2022/08/20 07:52:12;;;;;;;7.22;3.98;;;25.70;66.30;;;;;;963958;145;27298;-75
2022/08/20 07:54:39;;;;;;;3.50;3.20;;;26.10;66.60;;;;;;980111;142;27361;-75
2022/08/20 07:57:05;;;;;;;3.22;3.02;;;26.60;66.40;;;;;;971141;143;27317;-75
2022/08/20 07:59:32;;;;;;;3.30;3.10;;;27.10;65.90;;;;;;974342;143;27316;-75
2022/08/20 08:01:58;;;;;;;3.12;2.92;;;27.60;64.60;;;;;;957892;145;27352;-75
2022/08/20 08:04:25;;;;;;;3.25;2.95;;;28.10;63.60;;;;;;961604;145;27424;-75
2022/08/20 08:06:51;;;;;;;3.17;2.98;;;28.40;62.60;;;;;;981149;142;27258;-75
2022/08/20 08:09:18;;;;;;;3.40;3.10;;;28.60;61.60;;;;;;980151;142;27313;-75
2022/08/20 08:11:48;;;;;;;3.52;3.33;;;28.80;60.80;;;;;;974280;144;27310;-75
2022/08/20 08:14:11;;;;;;;2.87;2.67;;;28.90;60.00;;;;;;971836;145;27306;-75
2022/08/20 08:16:38;;;;;;;4.00;3.70;;;29.00;59.70;;;;;;979229;142;27379;-75
2022/08/20 08:19:05;;;;;;;3.35;3.15;;;29.00;59.40;;;;;;975355;143;27354;-75
2022/08/20 08:21:31;;;;;;;3.60;3.37;;;28.90;59.20;;;;;;970603;143;27469;-75
2022/08/20 08:23:58;;;;;;;3.72;3.52;;;28.90;59.00;;;;;;969694;143;27752;-75
2022/08/20 08:26:27;;;;;;;3.60;3.30;;;28.80;59.00;;;;;;972138;143;27429;-75
2022/08/20 08:28:51;;;;;;;4.55;4.17;;;28.60;58.90;;;;;;970177;143;27399;-75
2022/08/20 08:31:17;;;;;;;4.50;4.10;;;28.50;58.90;;;;;;972050;143;27341;-75
2022/08/20 08:33:44;;;;;;;3.20;3.00;;;28.40;59.10;;;;;;970463;143;27312;-75
2022/08/20 08:36:11;;;;;;;3.98;3.77;;;28.20;59.20;;;;;;971370;143;27348;-75
2022/08/20 08:38:37;;;;;;;4.08;3.67;;;28.10;59.40;;;;;;969743;145;27320;-75
2022/08/20 08:41:11;;;;;;;3.72;3.52;;;28.00;59.50;;;;;;973233;143;27303;-75
2022/08/20 08:43:36;;;;;;;4.20;3.70;;;28.00;60.00;;;;;;970755;145;27392;-75
2022/08/20 08:46:05;;;;;;;3.58;3.20;;;28.20;62.20;;;;;;976544;142;27302;-76
2022/08/20 08:48:39;;;;;;;2.70;2.50;;;28.60;64.00;;;;;;969561;146;27336;-76
2022/08/20 08:51:11;;;;;;;2.95;2.75;;;29.40;65.00;;;;;;969086;146;27389;-75
2022/08/20 08:53:32;;;;;;;2.50;2.40;;;30.30;65.00;;;;;;967985;146;27291;-76
2022/08/20 08:55:58;;;;;;;2.50;2.40;;;31.40;64.50;;;;;;959852;145;26254;-75
2022/08/20 08:58:25;;;;;;;2.70;2.50;;;32.60;63.40;;;;;;977785;142;26157;-76
2022/08/20 09:00:51;;;;;;;2.33;2.22;;;33.90;62.00;;;;;;964564;145;26462;-76
2022/08/20 09:03:21;;;;;;;3.05;2.60;;;35.10;59.90;;;;;;977101;142;26358;-76
2022/08/20 09:05:50;;;;;;;2.52;2.42;;;36.30;57.70;;;;;;961452;145;26266;-76
2022/08/20 09:08:17;;;;;;;2.40;2.30;;;37.50;56.00;;;;;;977985;142;26256;-76
2022/08/20 09:10:43;;;;;;;2.40;2.20;;;38.60;54.30;;;;;;978684;142;26342;-76
2022/08/20 09:13:09;;;;;;;3.75;1.85;;;39.50;52.90;;;;;;978685;142;28274;-77
2022/08/20 09:15:36;;;;;;;2.10;2.00;;;40.40;51.20;;;;;;978719;142;26320;-77
2022/08/20 09:18:03;;;;;;;1.98;1.82;;;41.20;49.40;;;;;;977483;142;26304;-77
2022/08/20 09:20:29;;;;;;;2.15;1.95;;;41.70;47.30;;;;;;979293;142;26202;-76
2022/08/20 09:22:56;;;;;;;2.37;2.27;;;42.00;45.80;;;;;;976692;142;26274;-76
2022/08/20 09:25:22;;;;;;;2.20;2.10;;;42.00;44.60;;;;;;968016;144;26355;-76
2022/08/20 09:27:49;;;;;;;2.52;2.42;;;41.80;43.60;;;;;;965133;144;26247;-76
2022/08/20 09:30:15;;;;;;;2.35;2.25;;;41.50;42.90;;;;;;963695;144;26227;-77
2022/08/20 09:32:42;;;;;;;2.58;2.37;;;41.10;42.90;;;;;;957299;145;26679;-76
2022/08/20 09:35:09;;;;;;;2.35;2.25;;;40.70;43.10;;;;;;957700;145;26311;-76
2022/08/20 09:37:35;;;;;;;2.35;2.25;;;40.50;43.30;;;;;;973283;143;26242;-76
2022/08/20 09:40:02;;;;;;;2.52;2.33;;;40.20;43.50;;;;;;965450;144;26942;-76
2022/08/20 09:42:29;;;;;;;2.20;2.10;;;40.00;43.30;;;;;;962927;146;27336;-75
2022/08/20 09:44:55;;;;;;;2.55;2.42;;;39.70;43.00;;;;;;963376;146;26223;-76
2022/08/20 09:47:22;;;;;;;2.72;2.60;;;39.20;42.70;;;;;;958196;145;26190;-76
2022/08/20 09:49:48;;;;;;;3.02;2.80;;;38.60;42.70;;;;;;965006;147;27321;-75
2022/08/20 09:52:27;;;;;;;4.72;3.17;;;38.00;43.70;;;;;;965621;146;27995;-76
2022/08/20 09:54:54;;;;;;;2.65;2.45;;;37.30;44.30;;;;;;961507;147;27274;-76
2022/08/20 09:57:20;;;;;;;2.27;2.08;;;36.50;44.70;;;;;;970574;143;27396;-75
2022/08/20 09:59:46;;;;;;;3.37;2.62;;;35.70;44.90;;;;;;964810;147;27304;-75
2022/08/20 10:02:13;;;;;;;2.85;2.42;;;34.90;46.00;;;;;;976715;143;27334;-76
2022/08/20 10:04:40;;;;;;;2.20;2.10;;;34.10;47.80;;;;;;962674;146;27692;-75
2022/08/20 10:07:06;;;;;;;2.92;1.98;;;33.30;49.00;;;;;;965103;147;27305;-75
2022/08/20 10:09:33;;;;;;;2.12;2.02;;;32.60;49.50;;;;;;962910;147;27413;-75
2022/08/20 10:11:59;;;;;;;2.77;2.15;;;32.00;50.30;;;;;;963600;146;27364;-75
2022/08/20 10:14:26;;;;;;;2.15;1.95;;;31.50;51.20;;;;;;958325;145;27384;-76
2022/08/20 10:16:59;;;;;;;2.35;1.92;;;31.10;52.00;;;;;;955938;145;27357;-75
2022/08/20 10:19:25;;;;;;;2.62;2.40;;;30.80;52.60;;;;;;969104;143;27319;-75
2022/08/20 10:21:52;;;;;;;2.50;2.40;;;30.50;53.10;;;;;;976038;143;27372;-75
2022/08/20 10:24:18;;;;;;;2.87;2.67;;;30.20;53.60;;;;;;962748;146;27367;-75
2022/08/20 10:26:45;;;;;;;1.95;1.85;;;30.00;54.00;;;;;;974318;143;27305;-75
2022/08/20 10:29:11;;;;;;;2.95;2.02;;;29.70;54.20;;;;;;965002;144;27398;-75
2022/08/20 10:31:38;;;;;;;1.82;1.72;;;29.50;54.50;;;;;;966086;144;27315;-75
2022/08/20 10:34:05;;;;;;;2.12;1.90;;;29.40;54.60;;;;;;955571;145;27813;-75
2022/08/20 10:36:31;;;;;;;2.12;1.92;;;29.20;54.80;;;;;;956991;145;27424;-75
2022/08/20 10:38:58;;;;;;;2.62;1.75;;;29.00;55.30;;;;;;963262;147;27360;-75
2022/08/20 10:41:24;;;;;;;1.95;1.85;;;28.90;55.70;;;;;;965231;147;27380;-75
2022/08/20 10:43:51;;;;;;;4.87;2.60;;;28.70;56.00;;;;;;964527;147;27335;-75
2022/08/20 10:46:18;;;;;;;4.45;1.95;;;28.50;56.10;;;;;;966219;147;27230;-75
2022/08/20 10:48:44;;;;;;;3.15;1.90;;;28.40;56.60;;;;;;963919;147;27281;-75
2022/08/20 10:51:11;;;;;;;2.25;1.92;;;28.30;57.30;;;;;;962907;147;27308;-76
2022/08/20 10:53:37;;;;;;;2.10;2.00;;;28.20;57.70;;;;;;962399;147;27335;-76
2022/08/20 10:56:04;;;;;;;2.20;1.80;;;28.10;58.30;;;;;;965843;147;27410;-76
2022/08/20 10:58:31;;;;;;;2.30;2.20;;;28.10;58.80;;;;;;963425;147;27298;-75
2022/08/20 11:00:57;;;;;;;1.82;1.70;;;28.20;59.20;;;;;;963516;147;27313;-75
2022/08/20 11:03:24;;;;;;;3.22;1.95;;;28.40;59.60;;;;;;963347;147;27221;-76
2022/08/20 11:05:50;;;;;;;1.90;1.80;;;28.60;60.00;;;;;;957103;145;27322;-76
2022/08/20 11:08:17;;;;;;;2.30;2.10;;;28.80;59.50;;;;;;975270;143;27290;-76
2022/08/20 11:10:43;;;;;;;2.25;2.05;;;29.10;59.30;;;;;;974306;143;28536;-76
2022/08/20 11:13:11;;;;;;;1.75;1.65;;;29.40;59.10;;;;;;962193;147;27374;-76
2022/08/20 11:15:37;;;;;;;1.87;1.77;;;29.60;59.00;;;;;;965422;146;27297;-76
2022/08/20 11:18:03;;;;;;;2.10;1.82;;;29.90;58.40;;;;;;972730;143;27323;-76
2022/08/20 11:20:30;;;;;;;2.40;2.20;;;30.20;58.20;;;;;;964262;147;27424;-76
2022/08/20 11:22:56;;;;;;;2.02;1.90;;;30.50;58.00;;;;;;957898;145;27379;-76
2022/08/20 11:25:23;;;;;;;2.05;1.90;;;30.70;56.80;;;;;;973439;143;27312;-76
2022/08/20 11:27:50;;;;;;;1.85;1.75;;;30.90;55.80;;;;;;964061;147;27298;-76
2022/08/20 11:30:16;;;;;;;2.77;2.15;;;31.00;55.50;;;;;;956118;145;27352;-77
2022/08/20 11:32:43;;;;;;;2.27;2.10;;;31.20;55.10;;;;;;973694;143;27308;-76
2022/08/20 11:35:09;;;;;;;1.98;1.87;;;31.20;54.50;;;;;;966270;144;27641;-76
2022/08/20 11:37:36;;;;;;;2.12;1.98;;;31.40;54.70;;;;;;975621;145;27307;-76
2022/08/20 11:40:03;;;;;;;2.60;2.37;;;31.40;55.10;;;;;;975792;145;27276;-76
2022/08/20 11:42:29;;;;;;;2.22;2.10;;;31.40;55.60;;;;;;975012;145;27418;-76
2022/08/20 11:44:56;;;;;;;2.47;2.27;;;31.30;55.00;;;;;;974203;145;27432;-76
2022/08/20 11:47:22;;;;;;;2.25;2.08;;;31.20;55.80;;;;;;972378;145;27448;-75
2022/08/20 11:49:49;;;;;;;4.30;3.02;;;31.00;55.00;;;;;;973046;145;27232;-76
2022/08/20 11:52:15;;;;;;;1.60;1.50;;;30.70;55.20;;;;;;971805;145;27244;-75
2022/08/20 11:54:43;;;;;;;1.35;1.32;;;30.30;54.80;;;;;;975078;145;27285;-76
2022/08/20 11:57:09;;;;;;;1.70;1.60;;;29.90;55.00;;;;;;972174;145;27385;-75
2022/08/20 11:59:35;;;;;;;2.08;1.87;;;29.40;55.60;;;;;;975556;145;27419;-75
2022/08/20 12:02:02;;;;;;;2.27;2.17;;;28.90;56.30;;;;;;971689;145;27327;-75
2022/08/20 12:04:28;;;;;;;2.37;2.27;;;28.50;57.60;;;;;;976213;145;27840;-75
2022/08/20 12:06:55;;;;;;;2.52;2.37;;;28.10;59.00;;;;;;975326;145;27292;-76
2022/08/20 12:09:22;;;;;;;2.75;2.58;;;27.80;59.70;;;;;;974317;145;27372;-75
2022/08/20 12:11:48;;;;;;;2.50;2.40;;;27.60;60.30;;;;;;972422;145;27338;-75
2022/08/20 12:14:15;;;;;;;2.52;2.42;;;27.50;60.30;;;;;;974543;145;27988;-75
2022/08/20 12:16:41;;;;;;;2.85;2.47;;;27.30;60.90;;;;;;974241;145;27308;-75
2022/08/20 12:19:08;;;;;;;3.00;2.80;;;27.20;61.30;;;;;;974633;145;27334;-76
2022/08/20 12:21:35;;;;;;;2.72;2.52;;;27.20;62.60;;;;;;975392;145;27687;-76
2022/08/20 12:24:01;;;;;;;3.08;2.87;;;27.20;63.50;;;;;;973021;145;27482;-75
2022/08/20 12:26:28;;;;;;;2.30;2.20;;;27.20;63.90;;;;;;974471;145;27327;-75
2022/08/20 12:28:54;;;;;;;2.52;2.33;;;27.30;63.60;;;;;;973889;145;27309;-75
2022/08/20 12:31:21;;;;;;;2.05;1.95;;;27.40;64.00;;;;;;975162;145;27289;-75
2022/08/20 12:33:47;;;;;;;2.50;2.30;;;27.50;63.70;;;;;;960156;147;27483;-76
2022/08/20 12:36:14;;;;;;;2.10;2.00;;;27.70;63.90;;;;;;973543;145;27941;-76
2022/08/20 12:38:41;;;;;;;2.30;2.15;;;27.80;63.50;;;;;;973622;145;27338;-75
2022/08/20 12:41:07;;;;;;;2.30;2.20;;;28.00;63.30;;;;;;975839;143;27891;-75
2022/08/20 12:43:34;;;;;;;2.40;2.27;;;28.10;63.20;;;;;;975245;145;27421;-76
2022/08/20 12:46:00;;;;;;;1.60;1.50;;;28.30;63.80;;;;;;976314;145;27406;-76
2022/08/20 12:48:27;;;;;;;2.15;1.95;;;28.50;63.60;;;;;;973682;145;27233;-76
2022/08/20 12:50:54;;;;;;;2.20;2.05;;;28.70;63.40;;;;;;959013;147;27323;-75
2022/08/20 12:53:20;;;;;;;2.05;1.85;;;28.80;62.40;;;;;;974947;145;27747;-76